Time;durP1;ratioP1;P1;durP2;ratioP2;P2;SDS_P1;SDS_P2;PMS_P1;PMS_P2;Temp;Humidity;BMP_temperature;BMP_pressure;BME280_temperature;BME280_humidity;BME280_pressure;Samples;Min_cycle;Max_cycle;Signal;HPM_P1;HPM_P2
2023/04/25 00:01:40;;;;;;;17.23;6.50;;;7.60;99.90;;;;;;5070593;28;20067;-56
2023/04/25 00:04:05;;;;;;;23.15;6.95;;;7.70;99.90;;;;;;5065825;28;20029;-56
2023/04/25 00:06:32;;;;;;;19.25;7.00;;;7.60;99.90;;;;;;5075361;28;20045;-56
2023/04/25 00:08:58;;;;;;;20.73;6.15;;;7.70;99.90;;;;;;5065725;28;20036;-56
2023/04/25 00:11:24;;;;;;;18.38;6.22;;;7.60;99.90;;;;;;5064411;28;20093;-56
2023/04/25 00:13:54;;;;;;;17.50;6.60;;;7.50;99.90;;;;;;5081611;28;20047;-56
2023/04/25 00:16:19;;;;;;;23.33;6.40;;;7.50;99.90;;;;;;5072663;28;20508;-56
2023/04/25 00:18:51;;;;;;;15.10;6.55;;;7.70;99.90;;;;;;5064330;28;20111;-56
2023/04/25 00:21:17;;;;;;;16.83;6.57;;;7.70;99.90;;;;;;5069030;28;20036;-56
2023/04/25 00:23:45;;;;;;;17.77;6.53;;;7.70;99.90;;;;;;5110627;27;20056;-56
2023/04/25 00:26:11;;;;;;;16.70;6.82;;;7.80;99.90;;;;;;5066488;28;20032;-56
2023/04/25 00:28:36;;;;;;;20.65;6.55;;;7.90;99.90;;;;;;5066270;28;20063;-56
2023/04/25 00:31:03;;;;;;;17.95;6.20;;;7.90;99.90;;;;;;5075677;28;20489;-56
2023/04/25 00:33:29;;;;;;;19.73;6.05;;;7.80;99.90;;;;;;5065759;28;20040;-56
2023/04/25 00:35:55;;;;;;;16.35;6.10;;;7.70;99.90;;;;;;5073567;27;20052;-56
2023/04/25 00:38:21;;;;;;;22.17;6.88;;;7.80;99.90;;;;;;5073461;28;20481;-56
2023/04/25 00:40:47;;;;;;;20.55;6.40;;;7.90;99.90;;;;;;5068932;28;20055;-56
2023/04/25 00:43:12;;;;;;;19.88;6.85;;;7.80;99.90;;;;;;5072304;27;20036;-56
2023/04/25 00:45:39;;;;;;;19.90;6.90;;;7.80;99.90;;;;;;5063898;28;20032;-56
2023/04/25 00:48:05;;;;;;;20.02;6.95;;;7.80;99.90;;;;;;5077179;27;20070;-57
2023/04/25 00:50:36;;;;;;;14.52;6.05;;;7.80;99.90;;;;;;5069744;28;20052;-56
2023/04/25 00:53:03;;;;;;;15.38;5.80;;;7.80;99.90;;;;;;5070359;27;20479;-55
2023/04/25 00:55:29;;;;;;;14.65;5.88;;;7.80;99.90;;;;;;5062048;28;20128;-56
2023/04/25 00:57:54;;;;;;;13.68;5.57;;;7.70;99.90;;;;;;5066961;28;20043;-56
2023/04/25 01:00:20;;;;;;;18.30;5.97;;;7.80;99.90;;;;;;5081033;27;20054;-56
2023/04/25 01:02:46;;;;;;;16.83;6.22;;;7.80;99.90;;;;;;5072160;28;20579;-56
2023/04/25 01:05:13;;;;;;;17.95;6.53;;;7.80;99.90;;;;;;5063884;28;20041;-56
2023/04/25 01:07:39;;;;;;;17.90;5.75;;;7.80;99.90;;;;;;5068193;28;20039;-56
2023/04/25 01:10:06;;;;;;;18.95;6.32;;;7.90;99.90;;;;;;5068250;27;20613;-56
2023/04/25 01:12:31;;;;;;;18.85;6.32;;;8.10;99.90;;;;;;5073769;28;20075;-56
2023/04/25 01:14:57;;;;;;;14.88;6.15;;;7.90;99.90;;;;;;5074584;28;20067;-56
2023/04/25 01:17:23;;;;;;;17.83;5.97;;;7.90;99.90;;;;;;5067152;28;20029;-56
2023/04/25 01:19:50;;;;;;;16.15;6.38;;;7.90;99.90;;;;;;5063579;28;20559;-56
2023/04/25 01:22:16;;;;;;;18.65;6.03;;;8.00;99.90;;;;;;5078039;28;20032;-57
2023/04/25 01:24:43;;;;;;;16.35;6.10;;;8.00;99.90;;;;;;5058427;27;20518;-56
2023/04/25 01:27:09;;;;;;;16.75;6.18;;;7.90;99.90;;;;;;5075205;28;20057;-55
2023/04/25 01:29:35;;;;;;;12.75;5.60;;;7.80;99.90;;;;;;5077624;28;20036;-56
2023/04/25 01:32:01;;;;;;;14.63;5.60;;;7.70;99.90;;;;;;5075396;28;20043;-56
2023/04/25 01:34:27;;;;;;;11.98;5.45;;;7.80;99.90;;;;;;5074083;28;20073;-56
2023/04/25 01:36:53;;;;;;;13.00;6.07;;;7.80;99.90;;;;;;5071343;28;20135;-56
2023/04/25 01:39:20;;;;;;;14.68;5.63;;;7.70;99.90;;;;;;5075445;28;20028;-56
2023/04/25 01:41:47;;;;;;;13.20;5.90;;;7.80;99.90;;;;;;5064234;28;20033;-56
2023/04/25 01:44:13;;;;;;;14.13;5.93;;;7.80;99.90;;;;;;5064046;28;20047;-56
2023/04/25 01:46:39;;;;;;;14.27;5.93;;;8.00;99.90;;;;;;5061134;28;20145;-56
2023/04/25 01:49:05;;;;;;;11.07;5.55;;;7.90;99.90;;;;;;5072587;28;20036;-56
2023/04/25 01:51:31;;;;;;;11.10;5.10;;;7.90;99.90;;;;;;5071547;28;20513;-56
2023/04/25 01:53:57;;;;;;;12.82;5.68;;;7.70;99.90;;;;;;5076035;28;20033;-56
2023/04/25 01:56:23;;;;;;;11.93;5.13;;;7.80;99.90;;;;;;5066216;28;20040;-56
2023/04/25 01:58:49;;;;;;;15.43;5.47;;;7.70;99.90;;;;;;5066314;28;20065;-56
2023/04/25 02:01:14;;;;;;;14.35;4.80;;;7.70;99.90;;;;;;5077724;27;20127;-56
2023/04/25 02:03:40;;;;;;;15.60;5.60;;;7.80;99.90;;;;;;5063803;28;20095;-56
2023/04/25 02:06:06;;;;;;;12.85;4.75;;;7.70;99.90;;;;;;5070037;28;20097;-56
2023/04/25 02:08:31;;;;;;;13.05;5.25;;;7.80;99.90;;;;;;5063193;28;20036;-56
2023/04/25 02:10:57;;;;;;;15.27;5.65;;;7.70;99.90;;;;;;5066016;28;20451;-56
2023/04/25 02:13:23;;;;;;;14.07;5.78;;;7.80;99.90;;;;;;5067122;28;20032;-56
2023/04/25 02:15:48;;;;;;;12.45;5.00;;;7.80;99.90;;;;;;5068122;28;20049;-56
2023/04/25 02:18:16;;;;;;;14.38;5.57;;;7.70;99.90;;;;;;5070562;28;20036;-56
2023/04/25 02:20:42;;;;;;;14.95;5.53;;;7.60;99.90;;;;;;5064179;28;20028;-56
2023/04/25 02:23:08;;;;;;;13.40;5.13;;;7.60;99.90;;;;;;5075682;28;20486;-56
2023/04/25 02:25:33;;;;;;;18.13;6.53;;;7.70;99.90;;;;;;5065987;28;20052;-56
2023/04/25 02:27:59;;;;;;;13.07;5.57;;;7.50;99.90;;;;;;5069663;28;20043;-56
2023/04/25 02:30:24;;;;;;;14.25;5.85;;;7.50;99.90;;;;;;5060441;28;20036;-56
2023/04/25 02:32:50;;;;;;;16.08;6.43;;;7.40;99.90;;;;;;5061155;28;20070;-56
2023/04/25 02:35:16;;;;;;;17.38;5.43;;;7.50;99.90;;;;;;5065004;28;20044;-57
2023/04/25 02:37:42;;;;;;;11.95;5.60;;;7.40;99.90;;;;;;5069824;28;20032;-56
2023/04/25 02:40:08;;;;;;;17.83;6.63;;;7.50;99.90;;;;;;5066682;27;20024;-55
2023/04/25 02:42:34;;;;;;;13.65;5.57;;;7.30;99.90;;;;;;5062799;28;20062;-56
2023/04/25 02:45:00;;;;;;;14.40;6.03;;;7.30;99.90;;;;;;5074793;28;20132;-56
2023/04/25 02:47:26;;;;;;;15.30;6.15;;;7.30;99.90;;;;;;5069759;28;20032;-56
2023/04/25 02:49:51;;;;;;;18.02;6.07;;;7.10;99.90;;;;;;5068596;28;20488;-56
2023/04/25 02:52:17;;;;;;;17.05;6.60;;;7.20;99.90;;;;;;5069798;28;20048;-56
2023/04/25 02:54:43;;;;;;;14.52;6.13;;;7.20;99.90;;;;;;5073870;28;20511;-56
2023/04/25 02:57:08;;;;;;;20.88;6.50;;;7.20;99.90;;;;;;5073014;28;20123;-56
2023/04/25 02:59:34;;;;;;;15.65;5.68;;;7.20;99.90;;;;;;5081050;27;20040;-56
2023/04/25 03:02:00;;;;;;;16.27;6.80;;;7.40;99.90;;;;;;5076634;27;20037;-56
2023/04/25 03:04:26;;;;;;;13.95;5.47;;;7.20;99.90;;;;;;5080711;28;20506;-56
2023/04/25 03:06:52;;;;;;;17.95;6.40;;;7.00;99.90;;;;;;5073062;28;20063;-56
2023/04/25 03:09:18;;;;;;;15.13;6.43;;;6.90;99.90;;;;;;5074484;27;20104;-56
2023/04/25 03:11:45;;;;;;;16.15;5.95;;;7.20;99.90;;;;;;5072892;28;20040;-56
2023/04/25 03:14:11;;;;;;;16.45;6.22;;;7.10;99.90;;;;;;5065874;28;20108;-57
2023/04/25 03:16:37;;;;;;;16.23;5.65;;;7.10;99.90;;;;;;5063822;28;20043;-56
2023/04/25 03:19:03;;;;;;;18.02;6.18;;;7.20;99.90;;;;;;5071817;28;20447;-56
2023/04/25 03:21:31;;;;;;;16.60;5.95;;;7.20;99.90;;;;;;5074183;28;20143;-56
2023/04/25 03:23:57;;;;;;;17.02;5.95;;;6.90;99.90;;;;;;5072749;28;20060;-56
2023/04/25 03:26:23;;;;;;;25.80;6.93;;;7.00;99.90;;;;;;5056864;28;20088;-57
2023/04/25 03:28:48;;;;;;;17.33;6.80;;;7.00;99.90;;;;;;5077822;28;20108;-56
2023/04/25 03:31:14;;;;;;;15.48;6.10;;;7.10;99.90;;;;;;5082536;28;20214;-56
2023/04/25 03:33:40;;;;;;;20.85;6.63;;;7.00;99.90;;;;;;5066607;28;20062;-56
2023/04/25 03:36:06;;;;;;;18.35;5.88;;;7.10;99.90;;;;;;5066058;27;20044;-56
2023/04/25 03:38:31;;;;;;;16.98;6.18;;;7.00;99.90;;;;;;5065026;28;20120;-56
2023/04/25 03:40:57;;;;;;;20.05;6.95;;;7.00;99.90;;;;;;5063865;28;20123;-56
2023/04/25 03:43:23;;;;;;;19.77;6.55;;;6.80;99.90;;;;;;5076825;28;20103;-56
2023/04/25 03:45:48;;;;;;;23.45;6.57;;;6.90;99.90;;;;;;5066744;28;20040;-56
2023/04/25 03:48:14;;;;;;;18.83;6.03;;;7.00;99.90;;;;;;5060367;28;20404;-56
2023/04/25 03:50:40;;;;;;;18.48;5.75;;;6.80;99.90;;;;;;5067540;28;20373;-56
2023/04/25 03:53:05;;;;;;;19.77;6.22;;;6.70;99.90;;;;;;5082693;28;20040;-56
2023/04/25 03:55:31;;;;;;;27.17;6.60;;;6.70;99.90;;;;;;5065969;28;20051;-56
2023/04/25 03:57:58;;;;;;;19.55;5.82;;;6.80;99.90;;;;;;5069543;28;20032;-56
2023/04/25 04:00:24;;;;;;;24.13;6.47;;;6.70;99.90;;;;;;5064780;28;20093;-57
2023/04/25 04:02:49;;;;;;;20.00;6.10;;;6.80;99.90;;;;;;5072053;28;20484;-56
2023/04/25 04:05:15;;;;;;;23.50;6.65;;;6.60;99.90;;;;;;5065124;27;20112;-56
2023/04/25 04:07:42;;;;;;;18.02;5.97;;;6.50;99.90;;;;;;5063666;28;20498;-56
2023/04/25 04:10:11;;;;;;;23.70;6.55;;;6.40;99.90;;;;;;5073121;27;20039;-56
2023/04/25 04:12:38;;;;;;;21.83;6.13;;;6.60;99.90;;;;;;5071865;27;20465;-56
2023/04/25 04:15:05;;;;;;;16.65;6.03;;;6.70;99.90;;;;;;5076901;27;20036;-56
2023/04/25 04:17:31;;;;;;;18.92;6.72;;;6.80;99.90;;;;;;5066795;28;20032;-56
2023/04/25 04:19:57;;;;;;;26.67;7.63;;;6.70;99.90;;;;;;5065095;28;20089;-56
2023/04/25 04:22:23;;;;;;;21.35;6.40;;;6.60;99.90;;;;;;5069579;27;20047;-56
2023/04/25 04:24:49;;;;;;;18.98;6.65;;;6.90;99.90;;;;;;5069151;28;20131;-56
2023/04/25 04:27:17;;;;;;;27.80;7.13;;;6.90;99.90;;;;;;5060343;28;20035;-56
2023/04/25 04:29:43;;;;;;;21.88;6.57;;;6.60;99.90;;;;;;5068635;28;20139;-56
2023/04/25 04:32:08;;;;;;;26.52;7.78;;;6.70;99.90;;;;;;5060003;28;20459;-56
2023/04/25 04:34:34;;;;;;;18.83;6.22;;;6.60;99.90;;;;;;5068384;28;20049;-56
2023/04/25 04:37:00;;;;;;;21.23;6.00;;;6.70;99.90;;;;;;5066392;28;20394;-55
2023/04/25 04:39:25;;;;;;;15.55;6.07;;;6.50;99.90;;;;;;5074031;28;20439;-55
2023/04/25 04:41:51;;;;;;;22.02;6.95;;;6.40;99.90;;;;;;5064846;28;20055;-56
2023/04/25 04:44:17;;;;;;;21.42;6.30;;;6.40;99.90;;;;;;5077443;27;20068;-56
2023/04/25 04:46:44;;;;;;;19.77;6.68;;;6.50;99.90;;;;;;5068266;28;20028;-56
2023/04/25 04:49:10;;;;;;;22.60;6.20;;;6.60;99.90;;;;;;5057504;28;20048;-56
2023/04/25 04:51:36;;;;;;;22.73;6.60;;;6.40;99.90;;;;;;5058738;28;20040;-56
2023/04/25 04:54:02;;;;;;;27.92;7.65;;;6.40;99.90;;;;;;5074715;28;20025;-56
2023/04/25 04:56:31;;;;;;;23.48;6.72;;;6.40;99.90;;;;;;5070129;27;20066;-56
2023/04/25 04:58:57;;;;;;;24.05;6.90;;;6.40;99.90;;;;;;5062423;28;20543;-56
2023/04/25 05:01:24;;;;;;;19.60;6.68;;;6.50;99.90;;;;;;5073023;28;20111;-56
2023/04/25 05:03:49;;;;;;;25.50;6.57;;;6.40;99.90;;;;;;5068172;28;20448;-55
2023/04/25 05:06:17;;;;;;;19.00;6.90;;;6.50;99.90;;;;;;5067510;28;20033;-56
2023/04/25 05:08:42;;;;;;;17.20;6.13;;;6.30;99.90;;;;;;5065048;28;20476;-56
2023/04/25 05:11:08;;;;;;;22.80;6.70;;;6.20;99.90;;;;;;5054627;28;20070;-56
2023/04/25 05:13:33;;;;;;;18.27;6.07;;;6.30;99.90;;;;;;5076888;27;20431;-56
2023/04/25 05:15:59;;;;;;;23.15;6.72;;;6.40;99.90;;;;;;5080266;28;20388;-56
2023/04/25 05:18:24;;;;;;;18.83;6.65;;;6.60;99.90;;;;;;5066644;28;20051;-56
2023/04/25 05:20:50;;;;;;;20.80;6.93;;;6.50;99.90;;;;;;5067505;27;20139;-56
2023/04/25 05:23:16;;;;;;;18.30;6.20;;;6.60;99.90;;;;;;5064125;28;20055;-56
2023/04/25 05:25:41;;;;;;;26.55;6.60;;;6.70;99.90;;;;;;5058758;28;20040;-56
2023/04/25 05:28:07;;;;;;;25.25;6.30;;;6.70;99.90;;;;;;5074585;28;20048;-56
2023/04/25 05:30:34;;;;;;;25.02;6.20;;;6.60;99.90;;;;;;5072273;28;20036;-56
2023/04/25 05:33:00;;;;;;;26.92;6.43;;;6.60;99.90;;;;;;5071809;28;20044;-56
2023/04/25 05:35:26;;;;;;;19.23;5.93;;;6.70;99.90;;;;;;5063899;28;20412;-56
2023/04/25 05:37:51;;;;;;;19.55;6.28;;;6.70;99.90;;;;;;5067294;28;20047;-56
2023/04/25 05:40:17;;;;;;;16.10;5.57;;;6.80;99.90;;;;;;5060398;28;20069;-56
2023/04/25 05:42:42;;;;;;;16.23;5.65;;;6.80;99.90;;;;;;5063740;28;20044;-56
2023/04/25 05:45:08;;;;;;;21.27;6.40;;;6.80;99.90;;;;;;5064342;28;20086;-56
2023/04/25 05:47:34;;;;;;;25.35;6.47;;;6.90;99.90;;;;;;5057512;28;20033;-56
2023/04/25 05:49:59;;;;;;;20.98;5.53;;;6.80;99.90;;;;;;5061964;28;20396;-56
2023/04/25 05:52:25;;;;;;;21.15;6.30;;;6.90;99.90;;;;;;5073781;28;20040;-56
2023/04/25 05:54:50;;;;;;;16.98;6.18;;;6.90;99.90;;;;;;5061808;28;20117;-56
2023/04/25 05:57:24;;;;;;;20.25;5.55;;;6.80;99.90;;;;;;5048785;28;20041;-56
2023/04/25 05:59:49;;;;;;;;;;;6.80;99.90;;;;;;5061458;28;20078;-56
2023/04/25 06:02:15;;;;;;;18.15;5.55;;;6.80;99.90;;;;;;5062010;28;20333;-56
2023/04/25 06:04:40;;;;;;;19.73;6.53;;;6.70;99.90;;;;;;5064688;27;20059;-56
2023/04/25 06:07:06;;;;;;;19.35;5.57;;;6.90;99.90;;;;;;5064980;28;20028;-55
2023/04/25 06:09:31;;;;;;;18.80;5.78;;;6.80;99.90;;;;;;5071722;27;20044;-56
2023/04/25 06:11:57;;;;;;;22.38;5.63;;;6.90;99.90;;;;;;5067547;28;20270;-56
2023/04/25 06:14:22;;;;;;;18.15;5.78;;;6.80;99.90;;;;;;5070032;27;20028;-56
2023/04/25 06:16:48;;;;;;;20.90;5.75;;;6.70;99.90;;;;;;5060757;28;20051;-55
2023/04/25 06:19:14;;;;;;;21.67;5.97;;;6.70;99.90;;;;;;5067552;28;20070;-56
2023/04/25 06:21:40;;;;;;;15.45;5.93;;;6.90;99.90;;;;;;5063688;28;20033;-56
2023/04/25 06:24:05;;;;;;;16.35;5.47;;;6.90;99.90;;;;;;5072351;28;20040;-56
2023/04/25 06:26:31;;;;;;;24.17;5.60;;;7.10;99.90;;;;;;5069929;28;20152;-56
2023/04/25 06:28:56;;;;;;;19.77;5.57;;;6.90;99.90;;;;;;5074660;28;20127;-55
2023/04/25 06:31:22;;;;;;;21.35;5.03;;;7.00;99.90;;;;;;5067847;28;20036;-56
2023/04/25 06:33:48;;;;;;;18.77;5.55;;;7.40;99.90;;;;;;5061967;28;20025;-56
2023/04/25 06:36:13;;;;;;;17.83;5.70;;;7.50;99.90;;;;;;5070610;28;20131;-56
2023/04/25 06:38:39;;;;;;;14.77;4.95;;;7.50;99.90;;;;;;5072889;28;20547;-56
2023/04/25 06:41:05;;;;;;;23.10;5.43;;;7.50;99.90;;;;;;5070961;28;20145;-56
2023/04/25 06:43:33;;;;;;;18.10;4.60;;;7.50;99.90;;;;;;5062864;28;20051;-56
2023/04/25 06:46:00;;;;;;;15.23;4.90;;;7.40;99.90;;;;;;5071959;27;20032;-56
2023/04/25 06:48:26;;;;;;;18.90;4.85;;;7.60;99.90;;;;;;5063444;27;20737;-56
2023/04/25 06:50:52;;;;;;;19.33;4.28;;;7.90;99.90;;;;;;5067908;28;20040;-57
2023/04/25 06:53:18;;;;;;;17.58;4.47;;;7.80;99.90;;;;;;5073212;28;20032;-56
2023/04/25 06:55:44;;;;;;;18.05;4.22;;;8.00;99.90;;;;;;5048921;28;20040;-56
2023/04/25 06:58:09;;;;;;;20.90;4.07;;;8.10;99.90;;;;;;5067529;28;20047;-56
2023/04/25 07:00:35;;;;;;;15.30;3.90;;;8.00;99.90;;;;;;5067876;27;21404;-56
2023/04/25 07:03:01;;;;;;;22.65;4.55;;;7.80;99.90;;;;;;5067437;28;20219;-56
2023/04/25 07:05:27;;;;;;;16.25;3.85;;;7.80;99.90;;;;;;5059878;28;20044;-56
2023/04/25 07:07:53;;;;;;;12.25;3.47;;;8.00;99.90;;;;;;5068832;28;20122;-56
2023/04/25 07:10:18;;;;;;;16.77;4.20;;;7.90;99.90;;;;;;5066759;28;20054;-56
2023/04/25 07:12:44;;;;;;;16.42;4.32;;;8.20;99.90;;;;;;5063666;28;20138;-56
2023/04/25 07:15:11;;;;;;;20.45;3.53;;;8.40;99.90;;;;;;5060102;28;20048;-56
2023/04/25 07:17:37;;;;;;;16.13;3.72;;;8.40;99.90;;;;;;5064978;28;20510;-56
2023/04/25 07:20:03;;;;;;;13.85;3.40;;;8.50;99.90;;;;;;5076117;28;20229;-55
2023/04/25 07:22:29;;;;;;;16.35;3.35;;;8.60;99.90;;;;;;5069509;28;20028;-56
2023/04/25 07:24:55;;;;;;;19.05;4.18;;;8.50;99.90;;;;;;5068309;28;20047;-55
2023/04/25 07:27:20;;;;;;;11.82;4.05;;;8.50;99.90;;;;;;5058778;28;20033;-56
2023/04/25 07:29:46;;;;;;;19.48;4.30;;;8.50;99.90;;;;;;5070584;28;20064;-56
2023/04/25 07:32:13;;;;;;;17.23;4.25;;;8.50;99.90;;;;;;5065099;28;20364;-56
2023/04/25 07:34:38;;;;;;;14.63;3.70;;;8.50;99.90;;;;;;5063046;28;20630;-56
2023/04/25 07:37:05;;;;;;;13.63;3.47;;;8.70;99.90;;;;;;5053576;28;20033;-56
2023/04/25 07:39:31;;;;;;;16.33;3.88;;;8.40;99.90;;;;;;5068381;28;20032;-56
2023/04/25 07:41:58;;;;;;;8.10;3.25;;;8.10;99.90;;;;;;5066401;28;20035;-56
2023/04/25 07:44:24;;;;;;;10.32;3.00;;;8.40;99.90;;;;;;5064469;28;20369;-56
2023/04/25 07:46:49;;;;;;;9.82;3.03;;;8.20;99.90;;;;;;5061096;28;20238;-56
2023/04/25 07:49:15;;;;;;;11.35;2.90;;;8.30;99.90;;;;;;5071048;28;20451;-56
2023/04/25 07:51:43;;;;;;;16.08;3.42;;;8.60;99.90;;;;;;5069507;28;20040;-56
2023/04/25 07:54:09;;;;;;;9.73;2.92;;;8.80;99.90;;;;;;5060091;28;20033;-56
2023/04/25 07:56:35;;;;;;;10.23;2.95;;;9.00;99.90;;;;;;5058572;28;20048;-56
2023/04/25 07:59:01;;;;;;;15.25;2.83;;;9.00;99.90;;;;;;5058912;28;20264;-56
2023/04/25 08:01:26;;;;;;;10.63;2.78;;;8.80;99.90;;;;;;5066420;28;20041;-56
2023/04/25 08:03:52;;;;;;;13.48;3.00;;;8.60;99.90;;;;;;5062778;28;20063;-56
2023/04/25 08:06:18;;;;;;;12.05;3.53;;;8.50;99.90;;;;;;5077606;27;20043;-56
2023/04/25 08:08:44;;;;;;;10.57;2.92;;;8.40;99.90;;;;;;5063389;28;20051;-56
2023/04/25 08:11:10;;;;;;;13.10;2.97;;;8.40;99.90;;;;;;5065970;28;20037;-55
2023/04/25 08:13:36;;;;;;;16.02;3.25;;;8.40;99.90;;;;;;5073089;28;20051;-55
2023/04/25 08:16:02;;;;;;;17.95;3.63;;;8.60;99.90;;;;;;5077027;28;20045;-55
2023/04/25 08:18:27;;;;;;;12.50;2.90;;;8.90;99.90;;;;;;5062887;28;20044;-56
2023/04/25 08:20:53;;;;;;;13.98;3.65;;;9.10;99.90;;;;;;5064699;28;20411;-56
2023/04/25 08:23:18;;;;;;;18.77;3.38;;;9.00;99.90;;;;;;5065915;28;20193;-56
2023/04/25 08:25:44;;;;;;;14.02;3.25;;;9.20;99.90;;;;;;5060921;28;20098;-56
2023/04/25 08:28:10;;;;;;;10.98;2.88;;;9.10;99.90;;;;;;5061255;28;20067;-56
2023/04/25 08:30:37;;;;;;;11.35;2.40;;;9.30;99.90;;;;;;5054953;28;20041;-56
2023/04/25 08:33:02;;;;;;;13.55;2.67;;;9.40;99.90;;;;;;5065483;28;20135;-55
2023/04/25 08:35:28;;;;;;;8.07;2.40;;;9.70;99.90;;;;;;5068617;28;20131;-55
2023/04/25 08:37:55;;;;;;;10.55;2.70;;;9.60;99.90;;;;;;5058921;28;20052;-56
2023/04/25 08:40:28;;;;;;;11.27;2.33;;;9.50;99.90;;;;;;5058667;28;20452;-55
2023/04/25 08:42:54;;;;;;;;;;;9.50;99.90;;;;;;5062496;28;20040;-56
2023/04/25 08:45:20;;;;;;;15.75;2.50;;;9.10;99.90;;;;;;5067709;28;19965;-56
2023/04/25 08:47:48;;;;;;;9.75;2.30;;;8.80;99.90;;;;;;5054942;28;20033;-56
2023/04/25 08:50:14;;;;;;;9.52;1.77;;;9.20;99.90;;;;;;5064515;28;20043;-56
2023/04/25 08:52:45;;;;;;;10.20;2.08;;;9.40;99.90;;;;;;5068154;28;20040;-56
2023/04/25 08:55:12;;;;;;;10.23;2.38;;;9.50;99.90;;;;;;5069522;28;20123;-57
2023/04/25 08:57:41;;;;;;;8.77;2.30;;;9.80;99.90;;;;;;5073500;28;20112;-55
2023/04/25 09:00:08;;;;;;;10.43;2.63;;;9.90;99.90;;;;;;5067840;28;20062;-55
2023/04/25 09:02:34;;;;;;;7.60;2.10;;;9.60;99.90;;;;;;5067857;28;20614;-56
2023/04/25 09:04:59;;;;;;;7.82;1.88;;;9.60;99.90;;;;;;5065045;28;20091;-55
2023/04/25 09:07:25;;;;;;;6.43;1.70;;;9.80;99.90;;;;;;5065788;28;20036;-56
2023/04/25 09:09:51;;;;;;;9.93;1.88;;;9.70;99.90;;;;;;5071849;28;20408;-56
2023/04/25 09:12:20;;;;;;;9.02;1.75;;;9.70;99.90;;;;;;5058148;28;20067;-56
2023/04/25 09:15:04;;;;;;;6.63;1.85;;;9.70;99.90;;;;;;5072876;28;20045;-56
2023/04/25 09:17:29;;;;;;;13.15;1.83;;;9.50;99.90;;;;;;5059400;28;20087;-56
2023/04/25 09:20:04;;;;;;;6.88;1.52;;;9.70;99.90;;;;;;5069453;28;20095;-56
2023/04/25 09:22:30;;;;;;;7.97;1.77;;;9.80;99.90;;;;;;5066184;28;20043;-56
2023/04/25 09:24:55;;;;;;;6.40;1.50;;;9.80;99.90;;;;;;5063398;28;20063;-56
2023/04/25 09:27:26;;;;;;;8.77;1.60;;;9.80;99.90;;;;;;5060432;28;20068;-56
2023/04/25 09:30:01;;;;;;;9.00;1.80;;;9.70;99.90;;;;;;5060247;28;20638;-56
2023/04/25 09:32:27;;;;;;;9.73;2.13;;;9.50;99.90;;;;;;5056957;28;20041;-56
2023/04/25 09:34:54;;;;;;;7.38;1.77;;;9.60;99.90;;;;;;5059161;28;20036;-56
2023/04/25 09:37:22;;;;;;;10.95;1.65;;;9.70;99.90;;;;;;5059332;28;20037;-56
2023/04/25 09:39:50;;;;;;;9.00;1.65;;;9.90;99.90;;;;;;5059420;28;20123;-56
2023/04/25 09:42:16;;;;;;;7.00;1.65;;;9.70;99.90;;;;;;5062312;28;20036;-56
2023/04/25 09:44:46;;;;;;;9.43;1.70;;;9.90;99.90;;;;;;5038630;28;20075;-56
2023/04/25 09:47:15;;;;;;;5.10;1.80;;;10.10;99.90;;;;;;5062084;28;20068;-55
2023/04/25 09:49:44;;;;;;;9.02;1.55;;;9.70;99.90;;;;;;5069296;28;20036;-56
2023/04/25 09:52:16;;;;;;;4.70;1.65;;;9.70;99.90;;;;;;5055083;28;20384;-56
2023/04/25 09:54:41;;;;;;;9.93;1.63;;;9.70;99.90;;;;;;5065862;28;20040;-56
2023/04/25 09:57:12;;;;;;;5.80;1.80;;;9.60;99.90;;;;;;5055143;28;20294;-56
2023/04/25 09:59:42;;;;;;;10.18;1.80;;;9.50;99.90;;;;;;5069562;28;20036;-56
2023/04/25 10:02:09;;;;;;;5.28;1.33;;;9.50;99.90;;;;;;5067615;28;20153;-56
2023/04/25 10:04:37;;;;;;;7.45;1.50;;;9.40;99.90;;;;;;5078514;28;20452;-56
2023/04/25 10:07:05;;;;;;;10.95;1.75;;;9.40;99.90;;;;;;5073032;28;20648;-56
2023/04/25 10:09:33;;;;;;;8.15;1.73;;;9.50;99.90;;;;;;5064114;28;20088;-56
2023/04/25 10:12:00;;;;;;;8.00;2.10;;;9.50;99.90;;;;;;5066902;28;20040;-56
2023/04/25 10:14:26;;;;;;;8.10;1.35;;;10.00;99.90;;;;;;5046267;28;20036;-56
2023/04/25 10:16:56;;;;;;;8.32;1.80;;;10.10;99.90;;;;;;5078020;28;20048;-56
2023/04/25 10:19:22;;;;;;;8.15;1.95;;;10.30;99.90;;;;;;5072232;28;20122;-56
2023/04/25 10:22:03;;;;;;;6.80;1.70;;;10.30;99.90;;;;;;5061175;28;20701;-56
2023/04/25 10:24:28;;;;;;;6.82;1.63;;;10.20;99.90;;;;;;5063963;28;20037;-56
2023/04/25 10:26:55;;;;;;;6.95;1.85;;;10.20;99.90;;;;;;5071337;28;20040;-56
2023/04/25 10:29:27;;;;;;;10.48;2.00;;;10.00;99.90;;;;;;5061971;28;20519;-56
2023/04/25 10:31:53;;;;;;;5.53;1.60;;;9.80;99.90;;;;;;5055585;28;20029;-56
2023/04/25 10:34:19;;;;;;;9.00;1.92;;;10.10;99.90;;;;;;5064993;28;20058;-56
2023/04/25 10:36:52;;;;;;;8.63;1.80;;;10.10;99.90;;;;;;5067869;28;20055;-56
2023/04/25 10:39:26;;;;;;;8.52;1.90;;;10.40;99.90;;;;;;5062036;28;20381;-56
2023/04/25 10:41:59;;;;;;;9.73;2.15;;;10.20;99.90;;;;;;5066467;28;20650;-56
2023/04/25 10:44:31;;;;;;;11.93;2.10;;;10.10;99.90;;;;;;5061975;28;20032;-56
2023/04/25 10:46:58;;;;;;;8.33;1.70;;;10.50;99.90;;;;;;5064233;28;20429;-56
2023/04/25 10:49:35;;;;;;;7.38;2.55;;;10.50;99.90;;;;;;5058487;28;20123;-56
2023/04/25 10:52:22;;;;;;;5.03;1.70;;;10.70;99.90;;;;;;5076461;28;20131;-56
2023/04/25 10:54:53;;;;;;;13.25;2.55;;;10.50;99.90;;;;;;5069872;28;20333;-56
2023/04/25 10:57:32;;;;;;;7.95;1.85;;;10.60;99.90;;;;;;5063108;28;20429;-56
2023/04/25 10:59:59;;;;;;;6.43;2.10;;;10.60;99.90;;;;;;5064941;28;20029;-56
2023/04/25 11:02:28;;;;;;;5.53;1.90;;;10.80;99.90;;;;;;5065635;28;20046;-56
2023/04/25 11:04:55;;;;;;;6.25;1.98;;;10.70;99.90;;;;;;5072331;28;20059;-57
2023/04/25 11:07:33;;;;;;;5.57;1.83;;;10.70;99.90;;;;;;5071819;28;20254;-56
2023/04/25 11:10:03;;;;;;;7.35;2.08;;;10.80;99.90;;;;;;5075229;28;20029;-56
2023/04/25 11:12:31;;;;;;;8.05;2.00;;;10.90;99.90;;;;;;5074365;28;20044;-56
2023/04/25 11:15:04;;;;;;;4.97;2.00;;;11.20;99.90;;;;;;5058032;28;20076;-57
2023/04/25 11:17:30;;;;;;;;;;;11.50;99.90;;;;;;5068555;28;20037;-57
2023/04/25 11:19:56;;;;;;;8.00;1.98;;;11.30;99.90;;;;;;5060692;28;20279;-56
2023/04/25 11:22:22;;;;;;;6.18;1.98;;;11.30;99.90;;;;;;5059092;28;20037;-56
2023/04/25 11:24:48;;;;;;;9.05;2.38;;;11.00;99.90;;;;;;5072966;28;20032;-56
2023/04/25 11:27:13;;;;;;;4.93;1.80;;;10.90;99.90;;;;;;5066913;28;20423;-56
2023/04/25 11:29:39;;;;;;;10.27;2.17;;;10.70;99.90;;;;;;5056083;28;20036;-56
2023/04/25 11:32:05;;;;;;;6.20;1.70;;;10.80;99.90;;;;;;5078386;28;20032;-56
2023/04/25 11:34:32;;;;;;;6.15;2.00;;;10.40;99.90;;;;;;5064340;28;20036;-56
2023/04/25 11:36:59;;;;;;;8.00;1.80;;;10.70;99.90;;;;;;5056157;28;20499;-56
2023/04/25 11:39:25;;;;;;;9.77;2.10;;;10.60;99.90;;;;;;5055571;28;20111;-56
2023/04/25 11:41:51;;;;;;;6.30;1.70;;;10.30;99.90;;;;;;5061714;28;20495;-56
2023/04/25 11:44:18;;;;;;;7.60;1.90;;;10.00;99.90;;;;;;5063136;28;20486;-56
2023/04/25 11:46:44;;;;;;;6.63;2.30;;;9.30;99.90;;;;;;5054893;28;20391;-56
2023/04/25 11:49:09;;;;;;;10.63;2.10;;;9.20;99.90;;;;;;5057262;28;20036;-56
2023/04/25 11:51:43;;;;;;;9.98;2.90;;;9.20;99.90;;;;;;5068586;28;21396;-56
2023/04/25 11:54:09;;;;;;;8.45;2.53;;;8.90;99.90;;;;;;5058543;28;20083;-56
2023/04/25 11:56:34;;;;;;;8.32;2.28;;;9.10;99.90;;;;;;5066109;28;20041;-56
2023/04/25 11:59:03;;;;;;;7.82;2.10;;;9.10;99.90;;;;;;5065560;28;20240;-56
2023/04/25 12:01:32;;;;;;;7.63;2.03;;;9.40;99.90;;;;;;5052257;28;20058;-56
2023/04/25 12:04:10;;;;;;;7.03;2.00;;;9.70;99.90;;;;;;5068598;28;20488;-56
2023/04/25 12:06:40;;;;;;;7.80;2.08;;;9.70;99.90;;;;;;5066287;28;20537;-56
2023/04/25 12:09:08;;;;;;;5.43;1.70;;;9.90;99.90;;;;;;5065024;28;20036;-56
2023/04/25 12:11:42;;;;;;;6.15;2.10;;;9.90;99.90;;;;;;5072873;28;20115;-56
2023/04/25 12:14:08;;;;;;;5.25;1.80;;;10.40;99.90;;;;;;5063906;28;20059;-56
2023/04/25 12:16:45;;;;;;;8.65;1.95;;;10.40;99.90;;;;;;5081101;28;20479;-56
2023/04/25 12:19:14;;;;;;;9.50;2.10;;;10.40;99.90;;;;;;5064002;28;20080;-56
2023/04/25 12:21:39;;;;;;;7.82;1.60;;;10.70;99.90;;;;;;5071298;28;20056;-56
2023/04/25 12:24:14;;;;;;;7.53;2.08;;;11.00;99.90;;;;;;5074878;28;20508;-56
2023/04/25 12:26:50;;;;;;;6.97;2.08;;;10.80;99.90;;;;;;5054691;28;20046;-56
2023/04/25 12:29:26;;;;;;;7.22;1.95;;;11.10;99.90;;;;;;5071457;28;20055;-56
2023/04/25 12:31:54;;;;;;;6.32;1.55;;;10.70;99.90;;;;;;5052613;28;20044;-56
2023/04/25 12:34:20;;;;;;;4.65;1.60;;;10.90;99.90;;;;;;5081962;28;20036;-56
2023/04/25 12:36:46;;;;;;;6.18;1.88;;;10.80;99.90;;;;;;5078012;28;20039;-56
2023/04/25 12:39:23;;;;;;;6.80;1.90;;;10.70;99.90;;;;;;5069785;28;20044;-56
2023/04/25 12:41:54;;;;;;;6.10;1.92;;;10.40;99.90;;;;;;5060424;28;20128;-56
2023/04/25 12:44:21;;;;;;;6.88;1.75;;;10.30;99.90;;;;;;5063605;28;20041;-56
2023/04/25 12:46:47;;;;;;;5.57;1.95;;;10.30;99.90;;;;;;5065704;28;20472;-56